<?xml version="1.0" encoding="UTF-8" standalone="no" ?>
<gpx xmlns="http://www.topografix.com/GPX/1/1" xmlns:xsi="http://www.w3.org/2001/XMLSchema-instance" xsi:schemaLocation="http://www.topografix.com/GPX/1/1 http://www.topografix.com/GPX/1/1/gpx.xsd" version="1.1" creator="VisuGPX - https://www.visugpx.com">
  <metadata>
    <name>Préparation Boucieu le Roy 201905 (boucle Montchal) (Randonnée Pédestre)</name>
    <desc><![CDATA[Préparation Boucieu le Roy 201905 (boucle Montchal) (Randonnée Pédestre)]]></desc>
  </metadata>
  <trk>
    <name><![CDATA[1083471-Parcours de Montchal]]></name>
    <trkseg>
      <trkpt lat="45.03496" lon="4.6822">
        <ele>306</ele>
        <time>2019-02-15T10:22:48Z</time>
      </trkpt>
      <trkpt lat="45.03488" lon="4.68208">
        <ele>306</ele>
        <time>2019-02-15T10:23:48Z</time>
      </trkpt>
      <trkpt lat="45.03488" lon="4.68208">
        <ele>306</ele>
        <time>2019-02-15T10:24:48Z</time>
      </trkpt>
      <trkpt lat="45.03498" lon="4.68201">
        <ele>306</ele>
        <time>2019-02-15T10:25:48Z</time>
      </trkpt>
      <trkpt lat="45.03498" lon="4.68201">
        <ele>306</ele>
        <time>2019-02-15T10:26:48Z</time>
      </trkpt>
      <trkpt lat="45.03461" lon="4.68144">
        <ele>304</ele>
        <time>2019-02-15T10:27:48Z</time>
      </trkpt>
      <trkpt lat="45.03461" lon="4.68144">
        <ele>304</ele>
        <time>2019-02-15T10:28:48Z</time>
      </trkpt>
      <trkpt lat="45.03453" lon="4.68162">
        <ele>305</ele>
        <time>2019-02-15T10:29:48Z</time>
      </trkpt>
      <trkpt lat="45.03427" lon="4.68169">
        <ele>304</ele>
        <time>2019-02-15T10:30:48Z</time>
      </trkpt>
      <trkpt lat="45.0341" lon="4.68166">
        <ele>306</ele>
        <time>2019-02-15T10:31:48Z</time>
      </trkpt>
      <trkpt lat="45.03299" lon="4.68049">
        <ele>313</ele>
        <time>2019-02-15T10:32:48Z</time>
      </trkpt>
      <trkpt lat="45.03293" lon="4.6805">
        <ele>314</ele>
        <time>2019-02-15T10:33:48Z</time>
      </trkpt>
      <trkpt lat="45.03293" lon="4.6805">
        <ele>314</ele>
        <time>2019-02-15T10:34:48Z</time>
      </trkpt>
      <trkpt lat="45.0329" lon="4.68056">
        <ele>316</ele>
        <time>2019-02-15T10:35:48Z</time>
      </trkpt>
      <trkpt lat="45.0329" lon="4.68056">
        <ele>316</ele>
        <time>2019-02-15T10:36:48Z</time>
      </trkpt>
      <trkpt lat="45.03296" lon="4.68071">
        <ele>318</ele>
        <time>2019-02-15T10:37:48Z</time>
      </trkpt>
      <trkpt lat="45.03319" lon="4.68096">
        <ele>318</ele>
        <time>2019-02-15T10:38:48Z</time>
      </trkpt>
      <trkpt lat="45.03319" lon="4.68096">
        <ele>318</ele>
        <time>2019-02-15T10:39:48Z</time>
      </trkpt>
      <trkpt lat="45.03317" lon="4.6811">
        <ele>322</ele>
        <time>2019-02-15T10:40:48Z</time>
      </trkpt>
      <trkpt lat="45.0333" lon="4.68126">
        <ele>321</ele>
        <time>2019-02-15T10:41:48Z</time>
      </trkpt>
      <trkpt lat="45.03351" lon="4.68168">
        <ele>322</ele>
        <time>2019-02-15T10:42:48Z</time>
      </trkpt>
      <trkpt lat="45.03349" lon="4.68198">
        <ele>325</ele>
        <time>2019-02-15T10:43:48Z</time>
      </trkpt>
      <trkpt lat="45.0334" lon="4.68207">
        <ele>328</ele>
        <time>2019-02-15T10:44:48Z</time>
      </trkpt>
      <trkpt lat="45.03334" lon="4.68204">
        <ele>330</ele>
        <time>2019-02-15T10:45:48Z</time>
      </trkpt>
      <trkpt lat="45.03329" lon="4.68175">
        <ele>329</ele>
        <time>2019-02-15T10:46:48Z</time>
      </trkpt>
      <trkpt lat="45.03301" lon="4.68173">
        <ele>340</ele>
        <time>2019-02-15T10:47:48Z</time>
      </trkpt>
      <trkpt lat="45.03268" lon="4.68135">
        <ele>342</ele>
        <time>2019-02-15T10:48:48Z</time>
      </trkpt>
      <trkpt lat="45.03255" lon="4.68134">
        <ele>346</ele>
        <time>2019-02-15T10:49:48Z</time>
      </trkpt>
      <trkpt lat="45.03255" lon="4.68134">
        <ele>346</ele>
        <time>2019-02-15T10:50:48Z</time>
      </trkpt>
      <trkpt lat="45.03245" lon="4.68132">
        <ele>347</ele>
        <time>2019-02-15T10:51:48Z</time>
      </trkpt>
      <trkpt lat="45.03235" lon="4.6814">
        <ele>349</ele>
        <time>2019-02-15T10:52:48Z</time>
      </trkpt>
      <trkpt lat="45.03238" lon="4.68165">
        <ele>358</ele>
        <time>2019-02-15T10:53:48Z</time>
      </trkpt>
      <trkpt lat="45.03246" lon="4.68184">
        <ele>362</ele>
        <time>2019-02-15T10:54:48Z</time>
      </trkpt>
      <trkpt lat="45.03221" lon="4.68187">
        <ele>362</ele>
        <time>2019-02-15T10:55:48Z</time>
      </trkpt>
      <trkpt lat="45.03205" lon="4.68235">
        <ele>374</ele>
        <time>2019-02-15T10:56:48Z</time>
      </trkpt>
      <trkpt lat="45.03183" lon="4.68239">
        <ele>377</ele>
        <time>2019-02-15T10:57:48Z</time>
      </trkpt>
      <trkpt lat="45.03171" lon="4.68274">
        <ele>385</ele>
        <time>2019-02-15T10:58:48Z</time>
      </trkpt>
      <trkpt lat="45.03133" lon="4.68306">
        <ele>388</ele>
        <time>2019-02-15T10:59:48Z</time>
      </trkpt>
      <trkpt lat="45.03127" lon="4.68317">
        <ele>389</ele>
        <time>2019-02-15T11:00:48Z</time>
      </trkpt>
      <trkpt lat="45.03133" lon="4.68359">
        <ele>398</ele>
        <time>2019-02-15T11:01:48Z</time>
      </trkpt>
      <trkpt lat="45.03126" lon="4.68416">
        <ele>408</ele>
        <time>2019-02-15T11:02:48Z</time>
      </trkpt>
      <trkpt lat="45.03128" lon="4.68442">
        <ele>410</ele>
        <time>2019-02-15T11:03:48Z</time>
      </trkpt>
      <trkpt lat="45.03128" lon="4.68442">
        <ele>410</ele>
        <time>2019-02-15T11:04:48Z</time>
      </trkpt>
      <trkpt lat="45.03115" lon="4.68441">
        <ele>411</ele>
        <time>2019-02-15T11:05:48Z</time>
      </trkpt>
      <trkpt lat="45.031" lon="4.68429">
        <ele>411</ele>
        <time>2019-02-15T11:06:48Z</time>
      </trkpt>
      <trkpt lat="45.03084" lon="4.68424">
        <ele>411</ele>
        <time>2019-02-15T11:07:48Z</time>
      </trkpt>
      <trkpt lat="45.03073" lon="4.68432">
        <ele>411</ele>
        <time>2019-02-15T11:08:48Z</time>
      </trkpt>
      <trkpt lat="45.03071" lon="4.68449">
        <ele>413</ele>
        <time>2019-02-15T11:09:48Z</time>
      </trkpt>
      <trkpt lat="45.03081" lon="4.68472">
        <ele>417</ele>
        <time>2019-02-15T11:10:48Z</time>
      </trkpt>
      <trkpt lat="45.03084" lon="4.68507">
        <ele>420</ele>
        <time>2019-02-15T11:11:48Z</time>
      </trkpt>
      <trkpt lat="45.0306" lon="4.68565">
        <ele>424</ele>
        <time>2019-02-15T11:12:48Z</time>
      </trkpt>
      <trkpt lat="45.0305" lon="4.68573">
        <ele>425</ele>
        <time>2019-02-15T11:13:48Z</time>
      </trkpt>
      <trkpt lat="45.02959" lon="4.68545">
        <ele>425</ele>
        <time>2019-02-15T11:14:48Z</time>
      </trkpt>
      <trkpt lat="45.02942" lon="4.68545">
        <ele>426</ele>
        <time>2019-02-15T11:15:48Z</time>
      </trkpt>
      <trkpt lat="45.02926" lon="4.68576">
        <ele>431</ele>
        <time>2019-02-15T11:16:48Z</time>
      </trkpt>
      <trkpt lat="45.02913" lon="4.68586">
        <ele>434</ele>
        <time>2019-02-15T11:17:48Z</time>
      </trkpt>
      <trkpt lat="45.02854" lon="4.68582">
        <ele>443</ele>
        <time>2019-02-15T11:18:48Z</time>
      </trkpt>
      <trkpt lat="45.02826" lon="4.68565">
        <ele>444</ele>
        <time>2019-02-15T11:19:48Z</time>
      </trkpt>
      <trkpt lat="45.028" lon="4.6856">
        <ele>446</ele>
        <time>2019-02-15T11:20:48Z</time>
      </trkpt>
      <trkpt lat="45.02772" lon="4.68561">
        <ele>450</ele>
        <time>2019-02-15T11:21:48Z</time>
      </trkpt>
      <trkpt lat="45.02756" lon="4.68567">
        <ele>454</ele>
        <time>2019-02-15T11:22:48Z</time>
      </trkpt>
      <trkpt lat="45.02713" lon="4.68555">
        <ele>452</ele>
        <time>2019-02-15T11:23:48Z</time>
      </trkpt>
      <trkpt lat="45.02699" lon="4.68556">
        <ele>452</ele>
        <time>2019-02-15T11:24:48Z</time>
      </trkpt>
      <trkpt lat="45.02674" lon="4.68567">
        <ele>455</ele>
        <time>2019-02-15T11:25:48Z</time>
      </trkpt>
      <trkpt lat="45.02656" lon="4.68586">
        <ele>460</ele>
        <time>2019-02-15T11:26:48Z</time>
      </trkpt>
      <trkpt lat="45.02635" lon="4.68595">
        <ele>462</ele>
        <time>2019-02-15T11:27:48Z</time>
      </trkpt>
      <trkpt lat="45.02612" lon="4.68599">
        <ele>464</ele>
        <time>2019-02-15T11:28:48Z</time>
      </trkpt>
      <trkpt lat="45.02576" lon="4.6859">
        <ele>464</ele>
        <time>2019-02-15T11:29:48Z</time>
      </trkpt>
      <trkpt lat="45.02551" lon="4.68604">
        <ele>467</ele>
        <time>2019-02-15T11:30:48Z</time>
      </trkpt>
      <trkpt lat="45.02507" lon="4.68614">
        <ele>471</ele>
        <time>2019-02-15T11:31:48Z</time>
      </trkpt>
      <trkpt lat="45.02501" lon="4.68621">
        <ele>472</ele>
        <time>2019-02-15T11:32:48Z</time>
      </trkpt>
      <trkpt lat="45.02489" lon="4.68662">
        <ele>480</ele>
        <time>2019-02-15T11:33:48Z</time>
      </trkpt>
      <trkpt lat="45.02449" lon="4.68663">
        <ele>482</ele>
        <time>2019-02-15T11:34:48Z</time>
      </trkpt>
      <trkpt lat="45.0242" lon="4.68651">
        <ele>480</ele>
        <time>2019-02-15T11:35:48Z</time>
      </trkpt>
      <trkpt lat="45.02387" lon="4.68651">
        <ele>477</ele>
        <time>2019-02-15T11:36:48Z</time>
      </trkpt>
      <trkpt lat="45.0237" lon="4.68662">
        <ele>478</ele>
        <time>2019-02-15T11:37:48Z</time>
      </trkpt>
      <trkpt lat="45.02355" lon="4.68681">
        <ele>480</ele>
        <time>2019-02-15T11:38:48Z</time>
      </trkpt>
      <trkpt lat="45.02323" lon="4.68754">
        <ele>487</ele>
        <time>2019-02-15T11:39:48Z</time>
      </trkpt>
      <trkpt lat="45.02293" lon="4.688">
        <ele>488</ele>
        <time>2019-02-15T11:40:48Z</time>
      </trkpt>
      <trkpt lat="45.02257" lon="4.68841">
        <ele>492</ele>
        <time>2019-02-15T11:41:48Z</time>
      </trkpt>
      <trkpt lat="45.02257" lon="4.68841">
        <ele>492</ele>
        <time>2019-02-15T11:42:48Z</time>
      </trkpt>
      <trkpt lat="45.02224" lon="4.68873">
        <ele>490</ele>
        <time>2019-02-15T11:43:48Z</time>
      </trkpt>
      <trkpt lat="45.02222" lon="4.68882">
        <ele>490</ele>
        <time>2019-02-15T11:44:48Z</time>
      </trkpt>
      <trkpt lat="45.02222" lon="4.68882">
        <ele>490</ele>
        <time>2019-02-15T11:45:48Z</time>
      </trkpt>
      <trkpt lat="45.02213" lon="4.68882">
        <ele>490</ele>
        <time>2019-02-15T11:46:48Z</time>
      </trkpt>
      <trkpt lat="45.02143" lon="4.68935">
        <ele>495</ele>
        <time>2019-02-15T11:47:48Z</time>
      </trkpt>
      <trkpt lat="45.02133" lon="4.68938">
        <ele>496</ele>
        <time>2019-02-15T11:48:48Z</time>
      </trkpt>
      <trkpt lat="45.02133" lon="4.68938">
        <ele>496</ele>
        <time>2019-02-15T11:49:48Z</time>
      </trkpt>
      <trkpt lat="45.02134" lon="4.68922">
        <ele>496</ele>
        <time>2019-02-15T11:50:48Z</time>
      </trkpt>
      <trkpt lat="45.02134" lon="4.68922">
        <ele>496</ele>
        <time>2019-02-15T11:51:48Z</time>
      </trkpt>
      <trkpt lat="45.02084" lon="4.68893">
        <ele>499</ele>
        <time>2019-02-15T11:52:48Z</time>
      </trkpt>
      <trkpt lat="45.01931" lon="4.68913">
        <ele>526</ele>
        <time>2019-02-15T11:53:48Z</time>
      </trkpt>
      <trkpt lat="45.01907" lon="4.68909">
        <ele>529</ele>
        <time>2019-02-15T11:54:48Z</time>
      </trkpt>
      <trkpt lat="45.01857" lon="4.68883">
        <ele>534</ele>
        <time>2019-02-15T11:55:48Z</time>
      </trkpt>
      <trkpt lat="45.01816" lon="4.68901">
        <ele>540</ele>
        <time>2019-02-15T11:56:48Z</time>
      </trkpt>
      <trkpt lat="45.01795" lon="4.68901">
        <ele>542</ele>
        <time>2019-02-15T11:57:48Z</time>
      </trkpt>
      <trkpt lat="45.0173" lon="4.68924">
        <ele>550</ele>
        <time>2019-02-15T11:58:48Z</time>
      </trkpt>
      <trkpt lat="45.0173" lon="4.68924">
        <ele>550</ele>
        <time>2019-02-15T11:59:48Z</time>
      </trkpt>
      <trkpt lat="45.01684" lon="4.68953">
        <ele>558</ele>
        <time>2019-02-15T12:00:48Z</time>
      </trkpt>
      <trkpt lat="45.01647" lon="4.68994">
        <ele>566</ele>
        <time>2019-02-15T12:01:48Z</time>
      </trkpt>
      <trkpt lat="45.01614" lon="4.6901">
        <ele>571</ele>
        <time>2019-02-15T12:02:48Z</time>
      </trkpt>
      <trkpt lat="45.01517" lon="4.69043">
        <ele>587</ele>
        <time>2019-02-15T12:03:48Z</time>
      </trkpt>
      <trkpt lat="45.01501" lon="4.69044">
        <ele>589</ele>
        <time>2019-02-15T12:04:48Z</time>
      </trkpt>
      <trkpt lat="45.01471" lon="4.69031">
        <ele>591</ele>
        <time>2019-02-15T12:05:48Z</time>
      </trkpt>
      <trkpt lat="45.01443" lon="4.69002">
        <ele>594</ele>
        <time>2019-02-15T12:06:48Z</time>
      </trkpt>
      <trkpt lat="45.01436" lon="4.69002">
        <ele>595</ele>
        <time>2019-02-15T12:07:48Z</time>
      </trkpt>
      <trkpt lat="45.01427" lon="4.69006">
        <ele>596</ele>
        <time>2019-02-15T12:08:48Z</time>
      </trkpt>
      <trkpt lat="45.01407" lon="4.69047">
        <ele>597</ele>
        <time>2019-02-15T12:09:48Z</time>
      </trkpt>
      <trkpt lat="45.01407" lon="4.69047">
        <ele>597</ele>
        <time>2019-02-15T12:10:48Z</time>
      </trkpt>
      <trkpt lat="45.01391" lon="4.6898">
        <ele>599</ele>
        <time>2019-02-15T12:11:48Z</time>
      </trkpt>
      <trkpt lat="45.01387" lon="4.68931">
        <ele>603</ele>
        <time>2019-02-15T12:12:48Z</time>
      </trkpt>
      <trkpt lat="45.01389" lon="4.68894">
        <ele>605</ele>
        <time>2019-02-15T12:13:48Z</time>
      </trkpt>
      <trkpt lat="45.01408" lon="4.68762">
        <ele>607</ele>
        <time>2019-02-15T12:14:48Z</time>
      </trkpt>
      <trkpt lat="45.01422" lon="4.68722">
        <ele>608</ele>
        <time>2019-02-15T12:15:48Z</time>
      </trkpt>
      <trkpt lat="45.01449" lon="4.68667">
        <ele>609</ele>
        <time>2019-02-15T12:16:48Z</time>
      </trkpt>
      <trkpt lat="45.01465" lon="4.68585">
        <ele>616</ele>
        <time>2019-02-15T12:17:48Z</time>
      </trkpt>
      <trkpt lat="45.01498" lon="4.68491">
        <ele>621</ele>
        <time>2019-02-15T12:18:48Z</time>
      </trkpt>
      <trkpt lat="45.01559" lon="4.6835">
        <ele>622</ele>
        <time>2019-02-15T12:19:48Z</time>
      </trkpt>
      <trkpt lat="45.01569" lon="4.68269">
        <ele>620</ele>
        <time>2019-02-15T12:20:48Z</time>
      </trkpt>
      <trkpt lat="45.01586" lon="4.6821">
        <ele>617</ele>
        <time>2019-02-15T12:21:48Z</time>
      </trkpt>
      <trkpt lat="45.01586" lon="4.6821">
        <ele>617</ele>
        <time>2019-02-15T12:22:48Z</time>
      </trkpt>
      <trkpt lat="45.01603" lon="4.68131">
        <ele>616</ele>
        <time>2019-02-15T12:23:48Z</time>
      </trkpt>
      <trkpt lat="45.01629" lon="4.68073">
        <ele>614</ele>
        <time>2019-02-15T12:24:48Z</time>
      </trkpt>
      <trkpt lat="45.01656" lon="4.6796">
        <ele>616</ele>
        <time>2019-02-15T12:25:48Z</time>
      </trkpt>
      <trkpt lat="45.01667" lon="4.67945">
        <ele>615</ele>
        <time>2019-02-15T12:26:48Z</time>
      </trkpt>
      <trkpt lat="45.01696" lon="4.67934">
        <ele>612</ele>
        <time>2019-02-15T12:27:48Z</time>
      </trkpt>
      <trkpt lat="45.01709" lon="4.67921">
        <ele>612</ele>
        <time>2019-02-15T12:28:48Z</time>
      </trkpt>
      <trkpt lat="45.01724" lon="4.67893">
        <ele>610</ele>
        <time>2019-02-15T12:29:48Z</time>
      </trkpt>
      <trkpt lat="45.01724" lon="4.67893">
        <ele>610</ele>
        <time>2019-02-15T12:30:48Z</time>
      </trkpt>
      <trkpt lat="45.01725" lon="4.67889">
        <ele>610</ele>
        <time>2019-02-15T12:31:48Z</time>
      </trkpt>
      <trkpt lat="45.01725" lon="4.67889">
        <ele>610</ele>
        <time>2019-02-15T12:32:48Z</time>
      </trkpt>
      <trkpt lat="45.01733" lon="4.679">
        <ele>609</ele>
        <time>2019-02-15T12:33:48Z</time>
      </trkpt>
      <trkpt lat="45.01732" lon="4.67956">
        <ele>606</ele>
        <time>2019-02-15T12:34:48Z</time>
      </trkpt>
      <trkpt lat="45.01773" lon="4.67927">
        <ele>603</ele>
        <time>2019-02-15T12:35:48Z</time>
      </trkpt>
      <trkpt lat="45.01794" lon="4.67919">
        <ele>601</ele>
        <time>2019-02-15T12:36:48Z</time>
      </trkpt>
      <trkpt lat="45.0185" lon="4.67924">
        <ele>594</ele>
        <time>2019-02-15T12:37:48Z</time>
      </trkpt>
      <trkpt lat="45.01878" lon="4.67935">
        <ele>591</ele>
        <time>2019-02-15T12:38:48Z</time>
      </trkpt>
      <trkpt lat="45.0196" lon="4.67984">
        <ele>582</ele>
        <time>2019-02-15T12:39:48Z</time>
      </trkpt>
      <trkpt lat="45.02" lon="4.68002">
        <ele>580</ele>
        <time>2019-02-15T12:40:48Z</time>
      </trkpt>
      <trkpt lat="45.02043" lon="4.68005">
        <ele>575</ele>
        <time>2019-02-15T12:41:48Z</time>
      </trkpt>
      <trkpt lat="45.02052" lon="4.67994">
        <ele>575</ele>
        <time>2019-02-15T12:42:48Z</time>
      </trkpt>
      <trkpt lat="45.02044" lon="4.67896">
        <ele>569</ele>
        <time>2019-02-15T12:43:48Z</time>
      </trkpt>
      <trkpt lat="45.02075" lon="4.67847">
        <ele>559</ele>
        <time>2019-02-15T12:44:48Z</time>
      </trkpt>
      <trkpt lat="45.02105" lon="4.67832">
        <ele>552</ele>
        <time>2019-02-15T12:45:48Z</time>
      </trkpt>
      <trkpt lat="45.02167" lon="4.67815">
        <ele>539</ele>
        <time>2019-02-15T12:46:48Z</time>
      </trkpt>
      <trkpt lat="45.02203" lon="4.67813">
        <ele>531</ele>
        <time>2019-02-15T12:47:48Z</time>
      </trkpt>
      <trkpt lat="45.02206" lon="4.67808">
        <ele>531</ele>
        <time>2019-02-15T12:48:48Z</time>
      </trkpt>
      <trkpt lat="45.02205" lon="4.67795">
        <ele>530</ele>
        <time>2019-02-15T12:49:48Z</time>
      </trkpt>
      <trkpt lat="45.02196" lon="4.67777">
        <ele>532</ele>
        <time>2019-02-15T12:50:48Z</time>
      </trkpt>
      <trkpt lat="45.02194" lon="4.67758">
        <ele>532</ele>
        <time>2019-02-15T12:51:48Z</time>
      </trkpt>
      <trkpt lat="45.02198" lon="4.67744">
        <ele>530</ele>
        <time>2019-02-15T12:52:48Z</time>
      </trkpt>
      <trkpt lat="45.02208" lon="4.67735">
        <ele>526</ele>
        <time>2019-02-15T12:53:48Z</time>
      </trkpt>
      <trkpt lat="45.02318" lon="4.67708">
        <ele>504</ele>
        <time>2019-02-15T12:54:48Z</time>
      </trkpt>
      <trkpt lat="45.02332" lon="4.67706">
        <ele>502</ele>
        <time>2019-02-15T12:55:48Z</time>
      </trkpt>
      <trkpt lat="45.02346" lon="4.67712">
        <ele>502</ele>
        <time>2019-02-15T12:56:48Z</time>
      </trkpt>
      <trkpt lat="45.02346" lon="4.67712">
        <ele>502</ele>
        <time>2019-02-15T12:57:48Z</time>
      </trkpt>
      <trkpt lat="45.02383" lon="4.67718">
        <ele>502</ele>
        <time>2019-02-15T12:58:48Z</time>
      </trkpt>
      <trkpt lat="45.02394" lon="4.67703">
        <ele>501</ele>
        <time>2019-02-15T12:59:48Z</time>
      </trkpt>
      <trkpt lat="45.02404" lon="4.67699">
        <ele>500</ele>
        <time>2019-02-15T13:00:48Z</time>
      </trkpt>
      <trkpt lat="45.02428" lon="4.67714">
        <ele>499</ele>
        <time>2019-02-15T13:01:48Z</time>
      </trkpt>
      <trkpt lat="45.02428" lon="4.67714">
        <ele>499</ele>
        <time>2019-02-15T13:02:48Z</time>
      </trkpt>
      <trkpt lat="45.02428" lon="4.67763">
        <ele>502</ele>
        <time>2019-02-15T13:03:48Z</time>
      </trkpt>
      <trkpt lat="45.0244" lon="4.67763">
        <ele>500</ele>
        <time>2019-02-15T13:04:48Z</time>
      </trkpt>
      <trkpt lat="45.0244" lon="4.67763">
        <ele>500</ele>
        <time>2019-02-15T13:05:48Z</time>
      </trkpt>
      <trkpt lat="45.0245" lon="4.67755">
        <ele>498</ele>
        <time>2019-02-15T13:06:48Z</time>
      </trkpt>
      <trkpt lat="45.0245" lon="4.67755">
        <ele>498</ele>
        <time>2019-02-15T13:07:48Z</time>
      </trkpt>
      <trkpt lat="45.0251" lon="4.67761">
        <ele>488</ele>
        <time>2019-02-15T13:08:48Z</time>
      </trkpt>
      <trkpt lat="45.0254" lon="4.67771">
        <ele>483</ele>
        <time>2019-02-15T13:09:48Z</time>
      </trkpt>
      <trkpt lat="45.02545" lon="4.67779">
        <ele>482</ele>
        <time>2019-02-15T13:10:48Z</time>
      </trkpt>
      <trkpt lat="45.02553" lon="4.67816">
        <ele>481</ele>
        <time>2019-02-15T13:11:48Z</time>
      </trkpt>
      <trkpt lat="45.02543" lon="4.67867">
        <ele>483</ele>
        <time>2019-02-15T13:12:48Z</time>
      </trkpt>
      <trkpt lat="45.02543" lon="4.67867">
        <ele>483</ele>
        <time>2019-02-15T13:13:48Z</time>
      </trkpt>
      <trkpt lat="45.0256" lon="4.67879">
        <ele>480</ele>
        <time>2019-02-15T13:14:48Z</time>
      </trkpt>
      <trkpt lat="45.0256" lon="4.67879">
        <ele>480</ele>
        <time>2019-02-15T13:15:48Z</time>
      </trkpt>
      <trkpt lat="45.02559" lon="4.67882">
        <ele>481</ele>
        <time>2019-02-15T13:16:48Z</time>
      </trkpt>
      <trkpt lat="45.02559" lon="4.67882">
        <ele>481</ele>
        <time>2019-02-15T13:17:48Z</time>
      </trkpt>
      <trkpt lat="45.02575" lon="4.67824">
        <ele>478</ele>
        <time>2019-02-15T13:18:48Z</time>
      </trkpt>
      <trkpt lat="45.02575" lon="4.67805">
        <ele>478</ele>
        <time>2019-02-15T13:19:48Z</time>
      </trkpt>
      <trkpt lat="45.02567" lon="4.67778">
        <ele>478</ele>
        <time>2019-02-15T13:20:48Z</time>
      </trkpt>
      <trkpt lat="45.02567" lon="4.67778">
        <ele>478</ele>
        <time>2019-02-15T13:21:48Z</time>
      </trkpt>
      <trkpt lat="45.02742" lon="4.6786">
        <ele>457</ele>
        <time>2019-02-15T13:22:48Z</time>
      </trkpt>
      <trkpt lat="45.02742" lon="4.6786">
        <ele>457</ele>
        <time>2019-02-15T13:23:48Z</time>
      </trkpt>
      <trkpt lat="45.02763" lon="4.67876">
        <ele>454</ele>
        <time>2019-02-15T13:24:48Z</time>
      </trkpt>
      <trkpt lat="45.02806" lon="4.67895">
        <ele>447</ele>
        <time>2019-02-15T13:25:48Z</time>
      </trkpt>
      <trkpt lat="45.02849" lon="4.67933">
        <ele>435</ele>
        <time>2019-02-15T13:26:48Z</time>
      </trkpt>
      <trkpt lat="45.02866" lon="4.67977">
        <ele>423</ele>
        <time>2019-02-15T13:27:48Z</time>
      </trkpt>
      <trkpt lat="45.02873" lon="4.67977">
        <ele>421</ele>
        <time>2019-02-15T13:28:48Z</time>
      </trkpt>
      <trkpt lat="45.02902" lon="4.67956">
        <ele>413</ele>
        <time>2019-02-15T13:29:48Z</time>
      </trkpt>
      <trkpt lat="45.02927" lon="4.67947">
        <ele>406</ele>
        <time>2019-02-15T13:30:48Z</time>
      </trkpt>
      <trkpt lat="45.03012" lon="4.67937">
        <ele>378</ele>
        <time>2019-02-15T13:31:48Z</time>
      </trkpt>
      <trkpt lat="45.03033" lon="4.67941">
        <ele>371</ele>
        <time>2019-02-15T13:32:48Z</time>
      </trkpt>
      <trkpt lat="45.03049" lon="4.67963">
        <ele>363</ele>
        <time>2019-02-15T13:33:48Z</time>
      </trkpt>
      <trkpt lat="45.03062" lon="4.67962">
        <ele>358</ele>
        <time>2019-02-15T13:34:48Z</time>
      </trkpt>
      <trkpt lat="45.03075" lon="4.67949">
        <ele>355</ele>
        <time>2019-02-15T13:35:48Z</time>
      </trkpt>
      <trkpt lat="45.03083" lon="4.67909">
        <ele>353</ele>
        <time>2019-02-15T13:36:48Z</time>
      </trkpt>
      <trkpt lat="45.0309" lon="4.67908">
        <ele>350</ele>
        <time>2019-02-15T13:37:48Z</time>
      </trkpt>
      <trkpt lat="45.03097" lon="4.67943">
        <ele>346</ele>
        <time>2019-02-15T13:38:48Z</time>
      </trkpt>
      <trkpt lat="45.03095" lon="4.67983">
        <ele>343</ele>
        <time>2019-02-15T13:39:48Z</time>
      </trkpt>
      <trkpt lat="45.0307" lon="4.68006">
        <ele>350</ele>
        <time>2019-02-15T13:40:48Z</time>
      </trkpt>
      <trkpt lat="45.03053" lon="4.6803">
        <ele>351</ele>
        <time>2019-02-15T13:41:48Z</time>
      </trkpt>
      <trkpt lat="45.03036" lon="4.68059">
        <ele>351</ele>
        <time>2019-02-15T13:42:48Z</time>
      </trkpt>
      <trkpt lat="45.0301" lon="4.68129">
        <ele>346</ele>
        <time>2019-02-15T13:43:48Z</time>
      </trkpt>
      <trkpt lat="45.02981" lon="4.68167">
        <ele>344</ele>
        <time>2019-02-15T13:44:48Z</time>
      </trkpt>
      <trkpt lat="45.0296" lon="4.68186">
        <ele>350</ele>
        <time>2019-02-15T13:45:48Z</time>
      </trkpt>
      <trkpt lat="45.02956" lon="4.68197">
        <ele>351</ele>
        <time>2019-02-15T13:46:48Z</time>
      </trkpt>
      <trkpt lat="45.0296" lon="4.68206">
        <ele>351</ele>
        <time>2019-02-15T13:47:48Z</time>
      </trkpt>
      <trkpt lat="45.02993" lon="4.68194">
        <ele>345</ele>
        <time>2019-02-15T13:48:48Z</time>
      </trkpt>
      <trkpt lat="45.03021" lon="4.68192">
        <ele>344</ele>
        <time>2019-02-15T13:49:48Z</time>
      </trkpt>
      <trkpt lat="45.03041" lon="4.68183">
        <ele>342</ele>
        <time>2019-02-15T13:50:48Z</time>
      </trkpt>
      <trkpt lat="45.03085" lon="4.6813">
        <ele>333</ele>
        <time>2019-02-15T13:51:48Z</time>
      </trkpt>
      <trkpt lat="45.03214" lon="4.68053">
        <ele>320</ele>
        <time>2019-02-15T13:52:48Z</time>
      </trkpt>
      <trkpt lat="45.03242" lon="4.68051">
        <ele>320</ele>
        <time>2019-02-15T13:53:48Z</time>
      </trkpt>
      <trkpt lat="45.03242" lon="4.68051">
        <ele>320</ele>
        <time>2019-02-15T13:54:48Z</time>
      </trkpt>
      <trkpt lat="45.03254" lon="4.68059">
        <ele>322</ele>
        <time>2019-02-15T13:55:48Z</time>
      </trkpt>
      <trkpt lat="45.0329" lon="4.68056">
        <ele>316</ele>
        <time>2019-02-15T13:56:48Z</time>
      </trkpt>
      <trkpt lat="45.0329" lon="4.68056">
        <ele>316</ele>
        <time>2019-02-15T13:57:48Z</time>
      </trkpt>
      <trkpt lat="45.03293" lon="4.6805">
        <ele>314</ele>
        <time>2019-02-15T13:58:48Z</time>
      </trkpt>
      <trkpt lat="45.03293" lon="4.6805">
        <ele>314</ele>
        <time>2019-02-15T13:59:48Z</time>
      </trkpt>
      <trkpt lat="45.03299" lon="4.68049">
        <ele>313</ele>
        <time>2019-02-15T14:00:48Z</time>
      </trkpt>
      <trkpt lat="45.0341" lon="4.68166">
        <ele>306</ele>
        <time>2019-02-15T14:01:48Z</time>
      </trkpt>
      <trkpt lat="45.03433" lon="4.68168">
        <ele>304</ele>
        <time>2019-02-15T14:02:48Z</time>
      </trkpt>
      <trkpt lat="45.03453" lon="4.68162">
        <ele>305</ele>
        <time>2019-02-15T14:03:48Z</time>
      </trkpt>
      <trkpt lat="45.03457" lon="4.68156">
        <ele>304</ele>
        <time>2019-02-15T14:04:48Z</time>
      </trkpt>
      <trkpt lat="45.03457" lon="4.68156">
        <ele>304</ele>
        <time>2019-02-15T14:05:48Z</time>
      </trkpt>
      <trkpt lat="45.03461" lon="4.68144">
        <ele>304</ele>
        <time>2019-02-15T14:06:48Z</time>
      </trkpt>
      <trkpt lat="45.03461" lon="4.68144">
        <ele>304</ele>
        <time>2019-02-15T14:07:48Z</time>
      </trkpt>
      <trkpt lat="45.03467" lon="4.68153">
        <ele>305</ele>
        <time>2019-02-15T14:08:48Z</time>
      </trkpt>
      <trkpt lat="45.03467" lon="4.68153">
        <ele>305</ele>
        <time>2019-02-15T14:09:48Z</time>
      </trkpt>
      <trkpt lat="45.03498" lon="4.68201">
        <ele>306</ele>
        <time>2019-02-15T14:10:48Z</time>
      </trkpt>
      <trkpt lat="45.03498" lon="4.68201">
        <ele>306</ele>
        <time>2019-02-15T14:11:48Z</time>
      </trkpt>
      <trkpt lat="45.03488" lon="4.68208">
        <ele>306</ele>
        <time>2019-02-15T14:12:48Z</time>
      </trkpt>
      <trkpt lat="45.03488" lon="4.68208">
        <ele>306</ele>
        <time>2019-02-15T14:13:48Z</time>
      </trkpt>
      <trkpt lat="45.03496" lon="4.6822">
        <ele>306</ele>
        <time>2019-02-15T14:14:48Z</time>
      </trkpt>
    </trkseg>
  </trk>
</gpx>